sensor_id;sensor_type;location;lat;lon;timestamp;pressure;altitude;pressure_sealevel;temperature;humidity
76195;BME280;64964;48.694;21.206;2023-06-01T05:55:57;98114.66;;;20.87;47.19
76195;BME280;64964;48.694;21.206;2023-06-01T05:58:22;98093.63;;;20.96;47.12
76195;BME280;64964;48.694;21.206;2023-06-01T06:00:47;98111.50;;;21.13;46.22
76195;BME280;64964;48.694;21.206;2023-06-01T06:03:13;98112.56;;;21.12;44.82
76195;BME280;64964;48.694;21.206;2023-06-01T06:05:38;98107.03;;;21.19;46.84
76195;BME280;64964;48.694;21.206;2023-06-01T06:08:04;98111.63;;;21.42;47.25
76195;BME280;64964;48.694;21.206;2023-06-01T06:10:29;98102.22;;;21.56;46.72
76195;BME280;64964;48.694;21.206;2023-06-01T06:12:54;98101.19;;;21.57;44.79
76195;BME280;64964;48.694;21.206;2023-06-01T06:15:20;98104.34;;;21.66;45.53
76195;BME280;64964;48.694;21.206;2023-06-01T06:17:46;98114.66;;;21.86;45.38
76195;BME280;64964;48.694;21.206;2023-06-01T06:20:11;98065.56;;;21.79;45.04
76195;BME280;64964;48.694;21.206;2023-06-01T06:22:37;98112.13;;;22.20;44.68
76195;BME280;64964;48.694;21.206;2023-06-01T06:25:02;98102.69;;;22.34;45.43
76195;BME280;64964;48.694;21.206;2023-06-01T06:27:29;98084.78;;;22.45;44.51
76195;BME280;64964;48.694;21.206;2023-06-01T06:29:54;98103.94;;;22.77;45.03
76195;BME280;64964;48.694;21.206;2023-06-01T06:32:19;98102.31;;;22.93;43.13
76195;BME280;64964;48.694;21.206;2023-06-01T06:34:45;98107.03;;;23.02;42.52
76195;BME280;64964;48.694;21.206;2023-06-01T06:37:11;98106.63;;;23.10;43.16
76195;BME280;64964;48.694;21.206;2023-06-01T06:39:37;98093.50;;;22.97;39.71
76195;BME280;64964;48.694;21.206;2023-06-01T06:42:03;98104.50;;;23.13;42.86
76195;BME280;64964;48.694;21.206;2023-06-01T06:44:30;98110.03;;;23.23;42.79
76195;BME280;64964;48.694;21.206;2023-06-01T06:46:58;98110.34;;;23.26;41.52
76195;BME280;64964;48.694;21.206;2023-06-01T06:49:24;98097.53;;;23.33;41.62
76195;BME280;64964;48.694;21.206;2023-06-01T06:51:50;98105.34;;;23.57;41.24
76195;BME280;64964;48.694;21.206;2023-06-01T06:54:15;98103.66;;;23.68;40.42
76195;BME280;64964;48.694;21.206;2023-06-01T06:56:41;98108.94;;;23.79;40.07
76195;BME280;64964;48.694;21.206;2023-06-01T06:59:06;98103.94;;;23.93;39.72
76195;BME280;64964;48.694;21.206;2023-06-01T07:01:32;98115.16;;;24.07;39.46
76195;BME280;64964;48.694;21.206;2023-06-01T07:04:01;98107.19;;;24.17;38.99
76195;BME280;64964;48.694;21.206;2023-06-01T07:06:26;98100.78;;;24.28;38.68
76195;BME280;64964;48.694;21.206;2023-06-01T07:08:52;98111.09;;;24.31;37.82
76195;BME280;64964;48.694;21.206;2023-06-01T07:11:18;98101.66;;;24.34;37.44
76195;BME280;64964;48.694;21.206;2023-06-01T07:13:43;98102.28;;;24.41;38.12
76195;BME280;64964;48.694;21.206;2023-06-01T07:16:09;98105.38;;;24.50;37.83
76195;BME280;64964;48.694;21.206;2023-06-01T07:18:34;98102.69;;;24.55;37.17
76195;BME280;64964;48.694;21.206;2023-06-01T07:20:59;98098.66;;;24.57;36.77
76195;BME280;64964;48.694;21.206;2023-06-01T07:23:25;98091.19;;;24.70;37.26
76195;BME280;64964;48.694;21.206;2023-06-01T07:25:51;98079.53;;;24.64;34.99
76195;BME280;64964;48.694;21.206;2023-06-01T07:28:17;98089.69;;;24.84;36.54
76195;BME280;64964;48.694;21.206;2023-06-01T07:30:43;98085.72;;;24.97;36.92
76195;BME280;64964;48.694;21.206;2023-06-01T07:33:08;98083.34;;;25.05;36.67
76195;BME280;64964;48.694;21.206;2023-06-01T07:35:34;98074.94;;;25.07;36.23
76195;BME280;64964;48.694;21.206;2023-06-01T07:37:59;98088.81;;;25.16;36.29
76195;BME280;64964;48.694;21.206;2023-06-01T07:40:25;98084.31;;;25.26;36.52
76195;BME280;64964;48.694;21.206;2023-06-01T07:42:50;98093.28;;;25.37;35.92
76195;BME280;64964;48.694;21.206;2023-06-01T07:45:17;98089.81;;;25.42;35.51
76195;BME280;64964;48.694;21.206;2023-06-01T07:47:42;98087.31;;;25.30;34.48
76195;BME280;64964;48.694;21.206;2023-06-01T07:50:08;98073.78;;;25.35;34.93
76195;BME280;64964;48.694;21.206;2023-06-01T07:52:33;98078.69;;;25.43;35.21
76195;BME280;64964;48.694;21.206;2023-06-01T07:54:59;98072.25;;;25.54;35.86
76195;BME280;64964;48.694;21.206;2023-06-01T07:57:24;98071.22;;;25.66;34.07
76195;BME280;64964;48.694;21.206;2023-06-01T07:59:50;98059.16;;;25.36;33.93
76195;BME280;64964;48.694;21.206;2023-06-01T08:02:15;98069.50;;;25.44;33.99
76195;BME280;64964;48.694;21.206;2023-06-01T08:04:41;98069.88;;;25.16;33.58
76195;BME280;64964;48.694;21.206;2023-06-01T08:07:06;98077.13;;;24.68;33.47
76195;BME280;64964;48.694;21.206;2023-06-01T08:09:32;98061.47;;;24.38;32.79
76195;BME280;64964;48.694;21.206;2023-06-01T08:11:58;98074.44;;;24.41;33.25
76195;BME280;64964;48.694;21.206;2023-06-01T08:14:24;98062.59;;;24.20;33.76
76195;BME280;64964;48.694;21.206;2023-06-01T08:16:49;98071.22;;;24.39;34.32
76195;BME280;64964;48.694;21.206;2023-06-01T08:19:16;98068.44;;;24.66;34.90
76195;BME280;64964;48.694;21.206;2023-06-01T08:21:42;98065.91;;;24.91;33.87
76195;BME280;64964;48.694;21.206;2023-06-01T08:24:08;98064.56;;;24.89;33.14
76195;BME280;64964;48.694;21.206;2023-06-01T08:26:34;98046.53;;;25.04;33.83
76195;BME280;64964;48.694;21.206;2023-06-01T08:29:00;98045.31;;;25.22;33.99
76195;BME280;64964;48.694;21.206;2023-06-01T08:31:26;98047.34;;;25.52;34.16
76195;BME280;64964;48.694;21.206;2023-06-01T08:33:52;98059.66;;;25.80;33.51
76195;BME280;64964;48.694;21.206;2023-06-01T08:36:20;98056.25;;;25.53;30.61
76195;BME280;64964;48.694;21.206;2023-06-01T08:38:46;98045.41;;;25.43;31.53
76195;BME280;64964;48.694;21.206;2023-06-01T08:41:32;98048.38;;;25.41;32.10
76195;BME280;64964;48.694;21.206;2023-06-01T08:44:03;98041.72;;;25.12;33.04
76195;BME280;64964;48.694;21.206;2023-06-01T08:46:31;98043.19;;;25.29;35.15
76195;BME280;64964;48.694;21.206;2023-06-01T08:48:58;98050.22;;;25.30;33.13
76195;BME280;64964;48.694;21.206;2023-06-01T08:51:24;98053.22;;;25.34;32.03
76195;BME280;64964;48.694;21.206;2023-06-01T08:53:50;98042.22;;;25.61;33.91
76195;BME280;64964;48.694;21.206;2023-06-01T08:56:16;98043.41;;;25.86;34.27
76195;BME280;64964;48.694;21.206;2023-06-01T08:58:43;98045.31;;;25.95;32.69
76195;BME280;64964;48.694;21.206;2023-06-01T09:01:12;98037.47;;;25.99;33.53
76195;BME280;64964;48.694;21.206;2023-06-01T09:03:41;98036.94;;;26.12;32.99
76195;BME280;64964;48.694;21.206;2023-06-01T09:06:06;98029.09;;;26.11;32.64
76195;BME280;64964;48.694;21.206;2023-06-01T09:08:32;98034.50;;;26.00;32.25
76195;BME280;64964;48.694;21.206;2023-06-01T09:10:57;98040.47;;;26.07;32.55
76195;BME280;64964;48.694;21.206;2023-06-01T09:13:39;98030.09;;;25.79;32.38
76195;BME280;64964;48.694;21.206;2023-06-01T09:16:06;98026.09;;;26.02;32.47
76195;BME280;64964;48.694;21.206;2023-06-01T09:18:31;98026.94;;;26.13;32.56
76195;BME280;64964;48.694;21.206;2023-06-01T09:21:15;98029.94;;;26.21;30.80
76195;BME280;64964;48.694;21.206;2023-06-01T09:23:40;98016.06;;;26.07;31.95
76195;BME280;64964;48.694;21.206;2023-06-01T09:26:09;98028.31;;;26.30;32.63
76195;BME280;64964;48.694;21.206;2023-06-01T09:29:07;98023.44;;;26.43;33.42
76195;BME280;64964;48.694;21.206;2023-06-01T09:31:41;98019.09;;;26.67;32.95
76195;BME280;64964;48.694;21.206;2023-06-01T09:34:08;98009.31;;;26.81;33.04
76195;BME280;64964;48.694;21.206;2023-06-01T09:36:35;98026.34;;;27.07;32.52
76195;BME280;64964;48.694;21.206;2023-06-01T09:39:09;98006.78;;;27.16;33.30
76195;BME280;64964;48.694;21.206;2023-06-01T09:44:26;98001.91;;;27.07;31.85
76195;BME280;64964;48.694;21.206;2023-06-01T09:46:55;98021.72;;;27.18;32.37
76195;BME280;64964;48.694;21.206;2023-06-01T09:49:23;98008.66;;;27.25;31.66
76195;BME280;64964;48.694;21.206;2023-06-01T09:51:51;98012.78;;;27.02;31.15
76195;BME280;64964;48.694;21.206;2023-06-01T09:54:24;98012.34;;;26.60;31.11
76195;BME280;64964;48.694;21.206;2023-06-01T09:56:50;98025.03;;;26.74;32.67
76195;BME280;64964;48.694;21.206;2023-06-01T09:59:16;98018.81;;;26.69;31.79
76195;BME280;64964;48.694;21.206;2023-06-01T10:01:58;98014.75;;;26.46;31.82
76195;BME280;64964;48.694;21.206;2023-06-01T10:04:25;98014.75;;;26.76;31.77
76195;BME280;64964;48.694;21.206;2023-06-01T10:06:52;98013.63;;;26.88;32.08
76195;BME280;64964;48.694;21.206;2023-06-01T10:09:20;98007.94;;;26.79;32.14
76195;BME280;64964;48.694;21.206;2023-06-01T10:11:48;98014.44;;;26.93;32.82
76195;BME280;64964;48.694;21.206;2023-06-01T10:14:16;98004.94;;;27.01;31.95
76195;BME280;64964;48.694;21.206;2023-06-01T10:16:43;98005.19;;;27.10;32.30
76195;BME280;64964;48.694;21.206;2023-06-01T10:19:12;98002.75;;;27.13;31.26
76195;BME280;64964;48.694;21.206;2023-06-01T10:21:37;98008.16;;;27.08;31.44
76195;BME280;64964;48.694;21.206;2023-06-01T10:24:06;97998.44;;;26.87;31.83
76195;BME280;64964;48.694;21.206;2023-06-01T10:26:41;98005.78;;;26.71;31.23
76195;BME280;64964;48.694;21.206;2023-06-01T10:29:07;98003.88;;;26.81;31.66
76195;BME280;64964;48.694;21.206;2023-06-01T10:31:41;97989.56;;;26.50;30.94
76195;BME280;64964;48.694;21.206;2023-06-01T10:34:08;97949.69;;;26.10;31.42
76195;BME280;64964;48.694;21.206;2023-06-01T10:39:24;97994.16;;;26.60;31.23
76195;BME280;64964;48.694;21.206;2023-06-01T10:41:51;97974.88;;;26.62;31.88
76195;BME280;64964;48.694;21.206;2023-06-01T10:47:04;97976.81;;;26.25;31.23
76195;BME280;64964;48.694;21.206;2023-06-01T10:57:39;97967.84;;;26.40;31.91
76195;BME280;64964;48.694;21.206;2023-06-01T11:00:22;97989.25;;;26.42;31.70
76195;BME280;64964;48.694;21.206;2023-06-01T11:13:18;97952.13;;;26.32;31.99
76195;BME280;64964;48.694;21.206;2023-06-01T11:19:01;97955.66;;;26.43;31.12
76195;BME280;64964;48.694;21.206;2023-06-01T11:21:37;97951.56;;;26.61;32.87
76195;BME280;64964;48.694;21.206;2023-06-01T11:24:10;97949.41;;;26.57;33.22
76195;BME280;64964;48.694;21.206;2023-06-01T11:26:41;97951.56;;;26.61;32.88
76195;BME280;64964;48.694;21.206;2023-06-01T11:29:08;97951.31;;;26.57;32.82
76195;BME280;64964;48.694;21.206;2023-06-01T11:31:40;97938.56;;;26.37;31.87
76195;BME280;64964;48.694;21.206;2023-06-01T11:34:07;97936.13;;;26.20;32.79
76195;BME280;64964;48.694;21.206;2023-06-01T11:36:42;97938.88;;;26.05;32.84
76195;BME280;64964;48.694;21.206;2023-06-01T11:39:27;97910.94;;;25.79;32.29
76195;BME280;64964;48.694;21.206;2023-06-01T11:42:11;97928.25;;;25.68;33.21
76195;BME280;64964;48.694;21.206;2023-06-01T11:44:40;97858.34;;;25.49;34.11
76195;BME280;64964;48.694;21.206;2023-06-01T11:47:06;97924.22;;;26.11;33.27
76195;BME280;64964;48.694;21.206;2023-06-01T11:49:42;97922.56;;;26.41;33.65
76195;BME280;64964;48.694;21.206;2023-06-01T11:52:13;97903.88;;;26.49;33.09
76195;BME280;64964;48.694;21.206;2023-06-01T11:54:39;97922.56;;;26.61;32.29
76195;BME280;64964;48.694;21.206;2023-06-01T11:57:05;97913.66;;;26.30;32.07
76195;BME280;64964;48.694;21.206;2023-06-01T11:59:38;97913.88;;;26.44;32.49
76195;BME280;64964;48.694;21.206;2023-06-01T12:02:16;97900.91;;;26.30;32.17
76195;BME280;64964;48.694;21.206;2023-06-01T12:04:41;97896.84;;;26.28;32.27
76195;BME280;64964;48.694;21.206;2023-06-01T12:07:07;97896.84;;;26.28;32.87
76195;BME280;64964;48.694;21.206;2023-06-01T12:09:34;97902.50;;;26.42;32.51
76195;BME280;64964;48.694;21.206;2023-06-01T12:11:59;97899.53;;;26.28;32.22
76195;BME280;64964;48.694;21.206;2023-06-01T12:14:25;97883.31;;;26.18;33.41
76195;BME280;64964;48.694;21.206;2023-06-01T12:16:58;97881.38;;;26.28;33.56
76195;BME280;64964;48.694;21.206;2023-06-01T12:19:25;97878.66;;;26.49;31.13
76195;BME280;64964;48.694;21.206;2023-06-01T12:21:53;97846.75;;;26.05;31.27
76195;BME280;64964;48.694;21.206;2023-06-01T12:24:31;97864.88;;;26.30;32.34
76195;BME280;64964;48.694;21.206;2023-06-01T12:26:58;97870.56;;;26.18;32.04
76195;BME280;64964;48.694;21.206;2023-06-01T12:29:54;97869.47;;;26.29;32.83
76195;BME280;64964;48.694;21.206;2023-06-01T12:32:20;97862.69;;;26.27;31.31
76195;BME280;64964;48.694;21.206;2023-06-01T12:35:03;97855.09;;;26.34;31.74
76195;BME280;64964;48.694;21.206;2023-06-01T12:37:31;97845.66;;;26.06;30.81
76195;BME280;64964;48.694;21.206;2023-06-01T12:39:56;97860.56;;;25.83;31.53
76195;BME280;64964;48.694;21.206;2023-06-01T12:42:40;97864.09;;;25.99;31.95
76195;BME280;64964;48.694;21.206;2023-06-01T12:45:06;97848.88;;;26.08;31.33
76195;BME280;64964;48.694;21.206;2023-06-01T12:47:39;97847.53;;;26.26;31.54
76195;BME280;64964;48.694;21.206;2023-06-01T12:50:07;97797.16;;;26.04;31.48
76195;BME280;64964;48.694;21.206;2023-06-01T12:52:33;97838.88;;;26.08;31.06
76195;BME280;64964;48.694;21.206;2023-06-01T12:54:59;97845.34;;;26.23;31.71
76195;BME280;64964;48.694;21.206;2023-06-01T12:57:24;97843.69;;;26.47;31.54
76195;BME280;64964;48.694;21.206;2023-06-01T12:59:50;97834.19;;;26.55;31.27
76195;BME280;64964;48.694;21.206;2023-06-01T13:02:15;97818.19;;;26.43;31.66
76195;BME280;64964;48.694;21.206;2023-06-01T13:04:41;97836.09;;;26.49;31.63
76195;BME280;64964;48.694;21.206;2023-06-01T13:07:07;97833.59;;;26.68;32.54
76195;BME280;64964;48.694;21.206;2023-06-01T13:09:32;97826.53;;;26.67;31.82
76195;BME280;64964;48.694;21.206;2023-06-01T13:11:58;97829.88;;;26.33;30.83
76195;BME280;64964;48.694;21.206;2023-06-01T13:14:23;97819.63;;;26.15;31.55
76195;BME280;64964;48.694;21.206;2023-06-01T13:16:49;97821.28;;;26.06;32.16
76195;BME280;64964;48.694;21.206;2023-06-01T13:19:14;97818.88;;;25.84;32.54
76195;BME280;64964;48.694;21.206;2023-06-01T13:21:39;97815.59;;;25.56;32.91
76195;BME280;64964;48.694;21.206;2023-06-01T13:24:05;97808.53;;;25.45;32.44
76195;BME280;64964;48.694;21.206;2023-06-01T13:26:31;97817.78;;;25.59;32.31
76195;BME280;64964;48.694;21.206;2023-06-01T13:28:56;97803.13;;;25.45;32.92
76195;BME280;64964;48.694;21.206;2023-06-01T13:31:21;97802.84;;;25.37;33.16
76195;BME280;64964;48.694;21.206;2023-06-01T13:33:47;97812.88;;;25.56;32.71
76195;BME280;64964;48.694;21.206;2023-06-01T13:36:13;97799.63;;;25.60;32.59
76195;BME280;64964;48.694;21.206;2023-06-01T13:38:39;97812.09;;;25.81;32.49
76195;BME280;64964;48.694;21.206;2023-06-01T13:41:05;97811.00;;;25.67;30.88
76195;BME280;64964;48.694;21.206;2023-06-01T13:43:30;97803.16;;;25.86;31.89
76195;BME280;64964;48.694;21.206;2023-06-01T13:45:56;97804.25;;;25.80;31.28
76195;BME280;64964;48.694;21.206;2023-06-01T13:48:21;97798.81;;;25.85;30.86
76195;BME280;64964;48.694;21.206;2023-06-01T13:50:47;97790.44;;;25.81;31.61
76195;BME280;64964;48.694;21.206;2023-06-01T13:53:12;97756.31;;;25.34;30.49
76195;BME280;64964;48.694;21.206;2023-06-01T13:55:38;97791.22;;;25.56;31.74
76195;BME280;64964;48.694;21.206;2023-06-01T13:58:04;97793.13;;;25.51;31.54
76195;BME280;64964;48.694;21.206;2023-06-01T14:00:30;97778.78;;;25.40;31.70
76195;BME280;64964;48.694;21.206;2023-06-01T14:02:55;97781.22;;;25.37;32.01
76195;BME280;64964;48.694;21.206;2023-06-01T14:05:20;97772.81;;;25.23;31.92
76195;BME280;64964;48.694;21.206;2023-06-01T14:07:46;97779.31;;;25.27;31.79
76195;BME280;64964;48.694;21.206;2023-06-01T14:10:11;97777.41;;;25.32;31.41
76195;BME280;64964;48.694;21.206;2023-06-01T14:12:39;97727.84;;;24.91;30.53
76195;BME280;64964;48.694;21.206;2023-06-01T14:15:05;97772.00;;;25.32;30.73
76195;BME280;64964;48.694;21.206;2023-06-01T14:17:30;97764.97;;;25.47;31.61
76195;BME280;64964;48.694;21.206;2023-06-01T14:19:56;97762.25;;;25.37;30.98
76195;BME280;64964;48.694;21.206;2023-06-01T14:22:21;97770.41;;;25.42;31.38
76195;BME280;64964;48.694;21.206;2023-06-01T14:24:47;97760.38;;;25.32;30.70
76195;BME280;64964;48.694;21.206;2023-06-01T14:27:12;97750.91;;;25.19;31.17
76195;BME280;64964;48.694;21.206;2023-06-01T14:29:37;97754.69;;;25.23;32.24
76195;BME280;64964;48.694;21.206;2023-06-01T14:32:03;97732.25;;;25.18;32.20
76195;BME280;64964;48.694;21.206;2023-06-01T14:34:29;97756.88;;;25.21;31.70
76195;BME280;64964;48.694;21.206;2023-06-01T14:36:54;97753.88;;;25.23;32.08
76195;BME280;64964;48.694;21.206;2023-06-01T14:39:19;97742.47;;;25.05;31.59
76195;BME280;64964;48.694;21.206;2023-06-01T14:41:45;97748.13;;;24.99;31.34
76195;BME280;64964;48.694;21.206;2023-06-01T14:44:10;97748.47;;;25.18;32.09
76195;BME280;64964;48.694;21.206;2023-06-01T14:46:35;97742.25;;;25.27;32.05
76195;BME280;64964;48.694;21.206;2023-06-01T14:49:01;97738.19;;;25.20;32.20
76195;BME280;64964;48.694;21.206;2023-06-01T14:51:29;97748.75;;;25.26;31.91
76195;BME280;64964;48.694;21.206;2023-06-01T14:53:54;97739.53;;;25.32;32.47
76195;BME280;64964;48.694;21.206;2023-06-01T14:56:20;97734.13;;;25.17;31.67
76195;BME280;64964;48.694;21.206;2023-06-01T14:58:47;97734.38;;;25.16;32.22
76195;BME280;64964;48.694;21.206;2023-06-01T15:01:12;97730.34;;;25.18;32.69
76195;BME280;64964;48.694;21.206;2023-06-01T15:03:38;97726.28;;;25.21;32.95
76195;BME280;64964;48.694;21.206;2023-06-01T15:06:03;97725.47;;;25.15;33.31
76195;BME280;64964;48.694;21.206;2023-06-01T15:08:30;97721.94;;;25.15;34.06
76195;BME280;64964;48.694;21.206;2023-06-01T15:10:55;97720.06;;;25.15;34.48
76195;BME280;64964;48.694;21.206;2023-06-01T15:13:20;97726.78;;;25.07;33.42
76195;BME280;64964;48.694;21.206;2023-06-01T15:15:46;97711.41;;;25.13;33.57
76195;BME280;64964;48.694;21.206;2023-06-01T15:18:12;97708.94;;;25.01;33.64
76195;BME280;64964;48.694;21.206;2023-06-01T15:20:37;97707.84;;;25.02;33.66
76195;BME280;64964;48.694;21.206;2023-06-01T15:23:02;97708.66;;;24.88;33.00
76195;BME280;64964;48.694;21.206;2023-06-01T15:25:28;97703.78;;;24.90;33.19
76195;BME280;64964;48.694;21.206;2023-06-01T15:27:53;97689.97;;;24.81;33.93
76195;BME280;64964;48.694;21.206;2023-06-01T15:30:18;97702.97;;;24.99;33.78
76195;BME280;64964;48.694;21.206;2023-06-01T15:32:44;97702.16;;;24.94;33.83
76195;BME280;64964;48.694;21.206;2023-06-01T15:35:09;97704.06;;;24.93;33.78
76195;BME280;64964;48.694;21.206;2023-06-01T15:37:35;97699.19;;;24.80;33.78
76195;BME280;64964;48.694;21.206;2023-06-01T15:40:01;97682.16;;;24.84;34.08
76195;BME280;64964;48.694;21.206;2023-06-01T15:42:27;97692.97;;;24.95;33.92
76195;BME280;64964;48.694;21.206;2023-06-01T15:44:52;97688.09;;;25.02;34.28
76195;BME280;64964;48.694;21.206;2023-06-01T15:47:18;97689.19;;;25.06;34.22
76195;BME280;64964;48.694;21.206;2023-06-01T15:49:43;97685.41;;;25.12;34.53
76195;BME280;64964;48.694;21.206;2023-06-01T15:52:09;97687.81;;;25.03;34.04
76195;BME280;64964;48.694;21.206;2023-06-01T15:54:35;97680.50;;;24.99;34.71
76195;BME280;64964;48.694;21.206;2023-06-01T15:57:01;97677.53;;;24.85;34.37
76195;BME280;64964;48.694;21.206;2023-06-01T15:59:29;97676.19;;;24.77;34.28
76195;BME280;64964;48.694;21.206;2023-06-01T16:01:54;97679.97;;;24.71;33.36
76195;BME280;64964;48.694;21.206;2023-06-01T16:04:20;97673.19;;;24.74;34.07
76195;BME280;64964;48.694;21.206;2023-06-01T16:06:45;97676.19;;;24.72;33.70
76195;BME280;64964;48.694;21.206;2023-06-01T16:09:10;97671.59;;;24.78;33.87
76195;BME280;64964;48.694;21.206;2023-06-01T16:11:36;97674.00;;;24.74;34.06
76195;BME280;64964;48.694;21.206;2023-06-01T16:14:01;97665.66;;;24.76;34.39
76195;BME280;64964;48.694;21.206;2023-06-01T16:16:27;97667.00;;;24.63;33.73
76195;BME280;64964;48.694;21.206;2023-06-01T16:18:52;97656.69;;;24.50;33.48
76195;BME280;64964;48.694;21.206;2023-06-01T16:21:17;97668.56;;;24.49;33.58
76195;BME280;64964;48.694;21.206;2023-06-01T16:23:43;97666.66;;;24.44;33.38
76195;BME280;64964;48.694;21.206;2023-06-01T16:26:09;97656.69;;;24.50;33.28
76195;BME280;64964;48.694;21.206;2023-06-01T16:28:34;97646.09;;;24.33;33.31
76195;BME280;64964;48.694;21.206;2023-06-01T16:31:03;97659.94;;;24.52;33.59
76195;BME280;64964;48.694;21.206;2023-06-01T16:33:28;97643.16;;;24.45;34.06
76195;BME280;64964;48.694;21.206;2023-06-01T16:35:54;97650.19;;;24.46;34.54
76195;BME280;64964;48.694;21.206;2023-06-01T16:38:19;97643.97;;;24.40;34.71
76195;BME280;64964;48.694;21.206;2023-06-01T16:40:44;97607.94;;;24.14;34.22
76195;BME280;64964;48.694;21.206;2023-06-01T16:43:10;97644.53;;;24.42;34.32
76195;BME280;64964;48.694;21.206;2023-06-01T16:45:38;97638.03;;;24.38;34.38
76195;BME280;64964;48.694;21.206;2023-06-01T16:48:03;97623.34;;;24.24;34.48
76195;BME280;64964;48.694;21.206;2023-06-01T16:50:31;97637.69;;;24.29;34.35
76195;BME280;64964;48.694;21.206;2023-06-01T16:52:56;97637.41;;;24.21;34.79
76195;BME280;64964;48.694;21.206;2023-06-01T16:55:21;97633.84;;;24.10;34.90
76195;BME280;64964;48.694;21.206;2023-06-01T16:57:47;97634.66;;;24.00;35.04
76195;BME280;64964;48.694;21.206;2023-06-01T17:00:12;97635.44;;;23.96;35.45
76195;BME280;64964;48.694;21.206;2023-06-01T17:02:38;97631.66;;;23.97;34.35
76195;BME280;64964;48.694;21.206;2023-06-01T17:05:04;97629.47;;;23.83;35.21
76195;BME280;64964;48.694;21.206;2023-06-01T17:07:30;97631.88;;;23.80;35.05
76195;BME280;64964;48.694;21.206;2023-06-01T17:09:55;97622.16;;;23.79;35.16
76195;BME280;64964;48.694;21.206;2023-06-01T17:12:20;97618.88;;;23.72;35.09
76195;BME280;64964;48.694;21.206;2023-06-01T17:14:47;97621.47;;;23.61;35.27
76195;BME280;64964;48.694;21.206;2023-06-01T17:17:13;97618.53;;;23.58;35.49
76195;BME280;64964;48.694;21.206;2023-06-01T17:19:39;97607.66;;;23.48;35.90
76195;BME280;64964;48.694;21.206;2023-06-01T17:22:05;97618.44;;;23.48;36.03
76195;BME280;64964;48.694;21.206;2023-06-01T17:24:31;97613.31;;;23.41;36.12
76195;BME280;64964;48.694;21.206;2023-06-01T17:26:56;97612.72;;;23.34;36.13
76195;BME280;64964;48.694;21.206;2023-06-01T17:29:22;97612.38;;;23.20;36.41
76195;BME280;64964;48.694;21.206;2023-06-01T17:31:47;97615.56;;;23.17;37.00
76195;BME280;64964;48.694;21.206;2023-06-01T17:34:12;97610.97;;;23.13;37.25
76195;BME280;64964;48.694;21.206;2023-06-01T17:36:38;97610.16;;;23.12;37.01
76195;BME280;64964;48.694;21.206;2023-06-01T17:39:03;97609.56;;;23.05;36.83
76195;BME280;64964;48.694;21.206;2023-06-01T17:41:28;97613.03;;;23.00;37.18
76195;BME280;64964;48.694;21.206;2023-06-01T17:43:54;97609.78;;;22.98;37.06
76195;BME280;64964;48.694;21.206;2023-06-01T17:46:19;97606.25;;;22.93;37.50
76195;BME280;64964;48.694;21.206;2023-06-01T17:48:45;97606.50;;;22.91;37.44
76195;BME280;64964;48.694;21.206;2023-06-01T17:51:10;97606.41;;;22.86;37.72
76195;BME280;64964;48.694;21.206;2023-06-01T17:53:35;97608.56;;;22.84;37.98
76195;BME280;64964;48.694;21.206;2023-06-01T17:56:01;97606.94;;;22.83;37.87
76195;BME280;64964;48.694;21.206;2023-06-01T17:58:26;97607.72;;;22.78;38.34
76195;BME280;64964;48.694;21.206;2023-06-01T18:00:52;97610.13;;;22.75;38.80
76195;BME280;64964;48.694;21.206;2023-06-01T18:03:17;97610.03;;;22.65;38.72
76195;BME280;64964;48.694;21.206;2023-06-01T18:05:42;97612.38;;;22.56;38.85
76195;BME280;64964;48.694;21.206;2023-06-01T18:08:08;97609.06;;;22.49;39.43
76195;BME280;64964;48.694;21.206;2023-06-01T18:10:33;97612.25;;;22.41;39.70
76195;BME280;64964;48.694;21.206;2023-06-01T18:12:58;97613.53;;;22.33;39.71
76195;BME280;64964;48.694;21.206;2023-06-01T18:15:24;97609.63;;;22.24;40.12
76195;BME280;64964;48.694;21.206;2023-06-01T18:17:49;97605.28;;;22.18;40.28
76195;BME280;64964;48.694;21.206;2023-06-01T18:20:14;97617.03;;;22.11;40.28
76195;BME280;64964;48.694;21.206;2023-06-01T18:22:40;97612.91;;;22.04;40.07
76195;BME280;64964;48.694;21.206;2023-06-01T18:25:05;97599.22;;;21.83;40.67
76195;BME280;64964;48.694;21.206;2023-06-01T18:27:31;97627.25;;;21.87;41.04
76195;BME280;64964;48.694;21.206;2023-06-01T18:29:57;97619.84;;;21.78;41.08
76195;BME280;64964;48.694;21.206;2023-06-01T18:32:22;97627.28;;;21.66;41.62
76195;BME280;64964;48.694;21.206;2023-06-01T18:34:47;97628.75;;;21.56;42.00
76195;BME280;64964;48.694;21.206;2023-06-01T18:37:14;97615.09;;;21.41;41.88
76195;BME280;64964;48.694;21.206;2023-06-01T18:39:39;97588.97;;;21.20;41.87
76195;BME280;64964;48.694;21.206;2023-06-01T18:42:05;97626.28;;;21.33;42.67
76195;BME280;64964;48.694;21.206;2023-06-01T18:44:30;97567.34;;;20.93;42.77
76195;BME280;64964;48.694;21.206;2023-06-01T18:46:56;97621.13;;;21.14;42.98
76195;BME280;64964;48.694;21.206;2023-06-01T18:49:21;97610.72;;;21.01;42.79
76195;BME280;64964;48.694;21.206;2023-06-01T18:51:47;97633.03;;;21.02;42.95
76195;BME280;64964;48.694;21.206;2023-06-01T18:54:15;97629.41;;;20.91;43.04
76195;BME280;64964;48.694;21.206;2023-06-01T18:56:40;97632.50;;;20.83;42.98
76195;BME280;64964;48.694;21.206;2023-06-01T18:59:05;97637.19;;;20.76;43.21
76195;BME280;64964;48.694;21.206;2023-06-01T19:01:31;97654.88;;;20.72;43.41
76195;BME280;64964;48.694;21.206;2023-06-01T19:03:56;97635.66;;;20.63;43.86
76195;BME280;64964;48.694;21.206;2023-06-01T19:06:21;97634.66;;;20.52;43.77
76195;BME280;64964;48.694;21.206;2023-06-01T19:08:47;97634.53;;;20.47;43.93
76195;BME280;64964;48.694;21.206;2023-06-01T19:11:14;97646.09;;;20.48;43.94
76195;BME280;64964;48.694;21.206;2023-06-01T19:13:42;97594.91;;;20.09;43.91